createdAt,value
2019-03-17T00:01:23.726Z,146.85
2019-03-17T00:03:50.964Z,147.72
2019-03-17T00:06:18.047Z,146.30
2019-03-17T00:08:46.215Z,146.80
2019-03-17T00:11:13.502Z,146.95
2019-03-17T00:13:40.923Z,146.28
2019-03-17T00:16:08.230Z,147.35
2019-03-17T00:18:35.366Z,146.68
2019-03-17T00:21:02.399Z,145.80
2019-03-17T00:23:29.455Z,146.80
2019-03-17T00:25:56.637Z,145.55
2019-03-17T00:28:24.068Z,146.60
2019-03-17T00:30:51.113Z,146.55
2019-03-17T00:33:18.252Z,146.57
2019-03-17T00:35:45.405Z,146.68
2019-03-17T00:38:12.455Z,148.47
2019-03-17T00:40:39.617Z,146.60
2019-03-17T00:43:07.054Z,147.00
2019-03-17T00:45:34.508Z,147.78
2019-03-17T00:48:03.820Z,146.05
2019-03-17T00:50:31.279Z,146.07
2019-03-17T00:52:58.465Z,146.22
2019-03-17T00:55:25.674Z,148.00
2019-03-17T00:57:52.739Z,146.05
2019-03-17T01:00:20.978Z,146.82
2019-03-17T01:02:48.355Z,147.07
2019-03-17T01:05:16.651Z,147.62
2019-03-17T01:07:43.984Z,146.45
2019-03-17T01:10:11.071Z,148.00
2019-03-17T01:12:38.134Z,147.10
2019-03-17T01:15:06.100Z,146.75
2019-03-17T01:17:33.175Z,147.95
2019-03-17T01:20:00.373Z,146.80
2019-03-17T01:22:27.586Z,147.13
2019-03-17T01:24:54.930Z,147.15
2019-03-17T01:27:21.984Z,146.53
2019-03-17T01:29:49.076Z,147.15
2019-03-17T01:32:16.485Z,145.60
2019-03-17T01:34:45.387Z,147.22
2019-03-17T01:37:14.043Z,146.65
2019-03-17T01:39:41.153Z,145.85
2019-03-17T01:42:08.220Z,147.05
2019-03-17T01:44:35.406Z,146.30
2019-03-17T01:47:03.986Z,148.43
2019-03-17T01:49:31.024Z,147.13
2019-03-17T01:51:58.076Z,145.92
2019-03-17T01:54:25.171Z,146.00
2019-03-17T01:56:52.235Z,145.35
2019-03-17T01:59:20.367Z,144.87
2019-03-17T02:01:47.460Z,146.02
2019-03-17T02:04:14.489Z,144.97
2019-03-17T02:06:41.892Z,145.57
2019-03-17T02:09:09.261Z,145.25
2019-03-17T02:11:36.436Z,147.22
2019-03-17T02:14:03.491Z,145.22
2019-03-17T02:16:30.568Z,146.53
2019-03-17T02:18:57.894Z,146.60
2019-03-17T02:21:24.933Z,147.07
2019-03-17T02:23:51.990Z,146.50
2019-03-17T02:26:19.528Z,145.65
2019-03-17T02:28:46.563Z,146.25
2019-03-17T02:31:13.655Z,145.97
2019-03-17T02:33:40.993Z,146.25
2019-03-17T02:36:09.113Z,146.15
2019-03-17T02:38:37.264Z,148.00
2019-03-17T02:41:05.125Z,146.93
2019-03-17T02:43:32.172Z,146.65
2019-03-17T02:46:02.757Z,147.28
2019-03-17T02:48:28.482Z,146.70
2019-03-17T02:50:55.506Z,145.90
2019-03-17T02:53:22.557Z,145.85
2019-03-17T02:55:49.620Z,146.65
2019-03-17T02:58:17.046Z,146.02
2019-03-17T03:00:44.138Z,146.70
2019-03-17T03:03:11.149Z,146.13
2019-03-17T03:05:53.928Z,147.60
2019-03-17T03:08:07.696Z,145.77
2019-03-17T03:10:36.520Z,145.40
2019-03-17T03:13:03.527Z,145.43
2019-03-17T03:15:30.608Z,148.93
2019-03-17T03:17:57.630Z,147.13
2019-03-17T03:20:25.034Z,145.32
2019-03-17T03:22:52.144Z,147.72
2019-03-17T03:25:19.194Z,148.10
2019-03-17T03:27:46.254Z,146.82
2019-03-17T03:30:13.334Z,148.25
2019-03-17T03:32:40.534Z,147.62
2019-03-17T03:35:08.133Z,146.72
2019-03-17T03:37:35.266Z,146.02
2019-03-17T03:40:02.646Z,147.02
2019-03-17T03:42:30.371Z,145.35
2019-03-17T03:45:00.608Z,147.53
2019-03-17T03:47:27.713Z,147.82
2019-03-17T03:49:57.139Z,145.97
2019-03-17T03:52:24.502Z,146.07
2019-03-17T03:54:51.538Z,147.25
2019-03-17T03:57:18.592Z,146.55
2019-03-17T03:59:46.058Z,146.55
2019-03-17T04:02:13.406Z,146.43
2019-03-17T04:04:40.656Z,146.82
2019-03-17T04:07:08.794Z,145.28
2019-03-17T04:09:36.193Z,145.50
2019-03-17T04:12:03.459Z,145.05
2019-03-17T04:14:30.950Z,146.37
2019-03-17T04:16:58.312Z,145.75
2019-03-17T04:19:25.378Z,145.45
2019-03-17T04:21:52.701Z,145.40
2019-03-17T04:24:19.742Z,145.20
2019-03-17T04:26:46.784Z,146.30
2019-03-17T04:29:13.986Z,145.53
2019-03-17T04:31:41.448Z,147.57
2019-03-17T04:34:08.467Z,145.55
2019-03-17T04:36:40.349Z,146.68
2019-03-17T04:39:06.624Z,145.77
2019-03-17T04:41:33.695Z,146.40
2019-03-17T04:44:00.782Z,145.35
2019-03-17T04:46:29.015Z,145.35
2019-03-17T04:48:56.122Z,146.02
2019-03-17T04:51:23.414Z,146.72
2019-03-17T04:53:50.461Z,145.62
2019-03-17T04:56:17.491Z,146.07
2019-03-17T04:58:44.561Z,146.07
2019-03-17T05:01:12.895Z,146.35
2019-03-17T05:03:40.296Z,145.75
2019-03-17T05:06:07.342Z,146.60
2019-03-17T05:08:34.403Z,145.92
2019-03-17T05:11:02.554Z,146.57
2019-03-17T05:13:29.575Z,145.62
2019-03-17T05:15:56.703Z,147.17
2019-03-17T05:18:25.212Z,146.15
2019-03-17T05:20:52.464Z,145.55
2019-03-17T05:23:19.514Z,145.77
2019-03-17T05:25:46.566Z,145.92
2019-03-17T05:28:13.670Z,147.22
2019-03-17T05:30:40.707Z,148.02
2019-03-17T05:33:08.125Z,146.93
2019-03-17T05:35:35.314Z,146.47
2019-03-17T05:38:02.334Z,146.13
2019-03-17T05:40:29.736Z,145.47
2019-03-17T05:42:56.802Z,145.77
2019-03-17T05:45:24.667Z,147.72
2019-03-17T05:47:52.183Z,145.60
2019-03-17T05:50:19.277Z,146.32
2019-03-17T05:52:46.303Z,146.90
2019-03-17T05:55:13.347Z,146.60
2019-03-17T05:57:40.406Z,146.77
2019-03-17T06:00:09.808Z,147.28
2019-03-17T06:02:36.856Z,148.70
2019-03-17T06:05:04.700Z,148.87
2019-03-17T06:07:31.761Z,147.82
2019-03-17T06:09:58.786Z,147.62
2019-03-17T06:12:25.848Z,148.65
2019-03-17T06:14:52.993Z,147.02
2019-03-17T06:17:20.097Z,147.55
2019-03-17T06:19:47.175Z,147.72
2019-03-17T06:22:18.467Z,150.65
2019-03-17T06:24:46.558Z,149.38
2019-03-17T06:27:13.624Z,147.93
2019-03-17T06:29:41.076Z,147.72
2019-03-17T06:32:10.532Z,148.22
2019-03-17T06:34:37.585Z,148.32
2019-03-17T06:37:04.730Z,148.55
2019-03-17T06:39:32.465Z,148.82
2019-03-17T06:41:59.501Z,148.28
2019-03-17T06:44:26.539Z,148.32
2019-03-17T06:46:53.599Z,149.27
2019-03-17T06:49:20.654Z,148.65
2019-03-17T06:51:47.715Z,149.02
2019-03-17T06:54:15.263Z,148.15
2019-03-17T06:56:42.322Z,148.45
2019-03-17T06:59:09.348Z,148.50
2019-03-17T07:01:36.696Z,149.35
2019-03-17T07:04:03.924Z,148.90
2019-03-17T07:06:30.967Z,147.17
2019-03-17T07:08:58.022Z,148.38
2019-03-17T07:11:25.086Z,148.80
2019-03-17T07:13:52.119Z,148.35
2019-03-17T07:16:19.810Z,148.00
2019-03-17T07:18:46.906Z,148.55
2019-03-17T07:21:13.981Z,149.20
2019-03-17T07:23:42.831Z,149.62
2019-03-17T07:26:10.100Z,148.53
2019-03-17T07:28:37.145Z,148.70
2019-03-17T07:31:05.361Z,150.27
2019-03-17T07:33:32.625Z,148.68
2019-03-17T07:35:59.662Z,149.38
2019-03-17T07:38:26.826Z,149.97
2019-03-17T07:40:53.914Z,152.12
2019-03-17T07:43:21.009Z,152.80
2019-03-17T07:45:48.519Z,152.15
2019-03-17T07:48:15.676Z,152.68
2019-03-17T07:50:42.786Z,153.60
2019-03-17T07:53:10.185Z,151.02
2019-03-17T07:55:37.231Z,151.87
2019-03-17T07:58:04.877Z,151.30
2019-03-17T08:00:32.548Z,150.15
2019-03-17T08:03:00.246Z,149.15
2019-03-17T08:05:27.417Z,150.12
2019-03-17T08:07:54.828Z,151.70
2019-03-17T08:10:21.882Z,151.72
2019-03-17T08:12:48.950Z,151.87
2019-03-17T08:15:16.397Z,152.95
2019-03-17T08:17:43.842Z,151.10
2019-03-17T08:20:11.326Z,151.18
2019-03-17T08:22:39.476Z,151.00
2019-03-17T08:25:06.727Z,151.10
2019-03-17T08:27:34.886Z,152.32
2019-03-17T08:30:01.954Z,151.27
2019-03-17T08:32:30.286Z,150.57
2019-03-17T08:34:57.425Z,150.15
2019-03-17T08:37:24.944Z,151.60
2019-03-17T08:39:52.114Z,150.12
2019-03-17T08:42:22.255Z,151.15
2019-03-17T08:44:51.782Z,150.95
2019-03-17T08:47:18.829Z,151.00
2019-03-17T08:49:45.863Z,152.40
2019-03-17T08:52:15.062Z,150.60
2019-03-17T08:54:43.250Z,150.75
2019-03-17T08:57:10.395Z,150.82
2019-03-17T08:59:37.474Z,148.55
2019-03-17T09:02:04.957Z,151.07
2019-03-17T09:04:32.194Z,150.10
2019-03-17T09:06:59.841Z,149.25
2019-03-17T09:09:28.864Z,151.35
2019-03-17T09:11:56.210Z,149.30
2019-03-17T09:14:23.306Z,150.35
2019-03-17T09:16:50.462Z,150.40
2019-03-17T09:19:17.995Z,150.05
2019-03-17T09:21:45.115Z,150.55
2019-03-17T09:24:17.069Z,151.05
2019-03-17T09:26:41.569Z,150.05
2019-03-17T09:29:08.690Z,150.00
2019-03-17T09:31:35.741Z,149.57
2019-03-17T09:34:06.697Z,151.22
2019-03-17T09:36:35.627Z,149.40
2019-03-17T09:39:03.863Z,150.90
2019-03-17T09:41:31.306Z,150.30
2019-03-17T09:43:58.349Z,152.53
2019-03-17T09:46:25.414Z,152.05
2019-03-17T09:48:52.920Z,152.72
2019-03-17T09:51:20.168Z,154.68
2019-03-17T09:53:47.355Z,151.95
2019-03-17T09:56:14.807Z,151.47
2019-03-17T09:58:41.873Z,154.45
2019-03-17T10:01:09.029Z,153.25
2019-03-17T10:03:36.194Z,153.72
2019-03-17T10:06:03.268Z,150.57
2019-03-17T10:08:30.556Z,151.42
2019-03-17T10:10:57.899Z,150.57
2019-03-17T10:13:25.038Z,150.30
2019-03-17T10:15:52.098Z,149.90
2019-03-17T10:18:19.561Z,151.57
2019-03-17T10:20:47.746Z,150.18
2019-03-17T10:23:14.763Z,151.40
2019-03-17T10:25:41.812Z,150.65
2019-03-17T10:28:08.917Z,150.87
2019-03-17T10:30:36.302Z,154.10
2019-03-17T10:33:04.625Z,153.10
2019-03-17T10:35:31.824Z,152.55
2019-03-17T10:37:59.423Z,151.40
2019-03-17T10:40:26.483Z,150.82
2019-03-17T10:42:53.574Z,153.47
2019-03-17T10:45:20.799Z,151.95
2019-03-17T10:47:47.882Z,150.00
2019-03-17T10:50:14.996Z,149.70
2019-03-17T10:52:42.195Z,149.47
2019-03-17T10:55:09.892Z,151.20
2019-03-17T10:57:37.293Z,152.12
2019-03-17T11:00:05.366Z,149.55
2019-03-17T11:02:32.935Z,148.72
2019-03-17T11:05:00.466Z,150.90
2019-03-17T11:07:27.497Z,150.85
2019-03-17T11:09:54.901Z,151.57
2019-03-17T11:12:22.049Z,149.62
2019-03-17T11:14:49.169Z,150.93
2019-03-17T11:17:16.769Z,150.57
2019-03-17T11:19:44.239Z,149.53
2019-03-17T11:22:11.280Z,150.12
2019-03-17T11:24:39.186Z,148.20
2019-03-17T11:27:06.262Z,148.97
2019-03-17T11:29:33.631Z,147.47
2019-03-17T11:32:01.330Z,146.82
2019-03-17T11:34:28.659Z,147.80
2019-03-17T11:36:56.002Z,146.53
2019-03-17T11:39:23.406Z,146.82
2019-03-17T11:41:50.507Z,147.05
2019-03-17T11:44:17.587Z,146.77
2019-03-17T11:46:44.669Z,144.57
2019-03-17T11:49:12.294Z,144.60
2019-03-17T11:51:40.535Z,144.97
2019-03-17T11:54:07.591Z,144.20
2019-03-17T11:56:35.161Z,142.15
2019-03-17T11:59:02.994Z,143.13
2019-03-17T12:01:30.174Z,142.10
2019-03-17T12:03:57.658Z,143.97
2019-03-17T12:06:26.540Z,143.00
2019-03-17T12:08:54.725Z,145.90
2019-03-17T12:11:22.526Z,143.68
2019-03-17T12:13:49.548Z,143.17
2019-03-17T12:16:16.848Z,143.32
2019-03-17T12:18:44.325Z,143.50
2019-03-17T12:21:11.719Z,143.57
2019-03-17T12:23:38.806Z,141.32
2019-03-17T12:26:05.967Z,141.80
2019-03-17T12:28:33.460Z,142.03
2019-03-17T12:31:01.948Z,140.95
2019-03-17T12:33:29.909Z,142.10
2019-03-17T12:35:56.997Z,141.00
2019-03-17T12:38:24.189Z,140.80
2019-03-17T12:40:51.471Z,142.53
2019-03-17T12:43:18.525Z,143.45
2019-03-17T12:45:45.596Z,142.82
2019-03-17T12:48:13.070Z,143.17
2019-03-17T12:50:40.144Z,141.32
2019-03-17T12:53:08.419Z,142.50
2019-03-17T12:55:35.484Z,141.68
2019-03-17T12:58:02.762Z,144.30
2019-03-17T13:00:29.815Z,143.07
2019-03-17T13:02:57.515Z,143.45
2019-03-17T13:05:25.198Z,143.00
2019-03-17T13:07:52.259Z,144.97
2019-03-17T13:10:19.364Z,146.05
2019-03-17T13:12:46.663Z,144.55
2019-03-17T13:15:13.786Z,143.43
2019-03-17T13:17:40.880Z,144.47
2019-03-17T13:20:09.553Z,143.37
2019-03-17T13:22:36.760Z,143.57
2019-03-17T13:25:04.302Z,143.00
2019-03-17T13:27:33.914Z,143.70
2019-03-17T13:30:01.042Z,145.05
2019-03-17T13:32:32.206Z,145.07
2019-03-17T13:34:59.268Z,145.82
2019-03-17T13:37:26.332Z,145.57
2019-03-17T13:39:53.435Z,142.35
2019-03-17T13:42:20.930Z,143.85
2019-03-17T13:44:48.325Z,143.37
2019-03-17T13:47:15.552Z,144.43
2019-03-17T13:49:42.820Z,144.75
2019-03-17T13:52:09.902Z,143.47
2019-03-17T13:54:36.972Z,144.07
2019-03-17T13:57:04.403Z,144.77
2019-03-17T13:59:31.486Z,143.45
2019-03-17T14:01:58.556Z,143.15
2019-03-17T14:04:26.111Z,144.47
2019-03-17T14:06:53.191Z,146.07
2019-03-17T14:09:20.294Z,145.15
2019-03-17T14:11:47.795Z,144.35
2019-03-17T14:14:14.865Z,144.57
2019-03-17T14:16:42.806Z,144.72
2019-03-17T14:19:10.283Z,144.05
2019-03-17T14:21:37.388Z,144.60
2019-03-17T14:24:04.628Z,144.62
2019-03-17T14:26:31.865Z,144.35
2019-03-17T14:28:59.113Z,145.25
2019-03-17T14:31:26.245Z,144.32
2019-03-17T14:33:53.852Z,144.95
2019-03-17T14:36:20.988Z,145.87
2019-03-17T14:38:48.307Z,146.40
2019-03-17T14:41:15.371Z,146.77
2019-03-17T14:43:42.462Z,146.72
2019-03-17T14:46:09.516Z,148.50
2019-03-17T14:48:38.077Z,151.32
2019-03-17T14:51:05.161Z,151.65
2019-03-17T14:53:32.338Z,151.75
2019-03-17T14:55:59.472Z,147.80
2019-03-17T14:58:26.662Z,148.78
2019-03-17T15:00:59.842Z,150.27
2019-03-17T15:03:29.006Z,148.90
2019-03-17T15:05:56.506Z,149.18
2019-03-17T15:08:23.729Z,150.50
2019-03-17T15:10:51.103Z,148.95
2019-03-17T15:13:18.459Z,149.93
2019-03-17T15:15:45.582Z,150.38
2019-03-17T15:18:13.100Z,149.30
2019-03-17T15:20:40.335Z,149.23
2019-03-17T15:23:08.878Z,150.80
2019-03-17T15:25:37.061Z,148.72
2019-03-17T15:28:04.366Z,149.05
2019-03-17T15:30:31.489Z,147.32
2019-03-17T15:32:58.599Z,148.45
2019-03-17T15:35:25.851Z,149.10
2019-03-17T15:37:52.991Z,147.85
2019-03-17T15:40:20.189Z,146.47
2019-03-17T15:42:47.928Z,148.72
2019-03-17T15:45:17.551Z,147.95
2019-03-17T15:47:45.889Z,147.62
2019-03-17T15:50:14.371Z,147.13
2019-03-17T15:52:41.557Z,146.18
2019-03-17T15:55:09.539Z,147.93
2019-03-17T15:57:36.689Z,147.78
2019-03-17T16:00:05.651Z,149.35
2019-03-17T16:02:32.867Z,145.10
2019-03-17T16:05:00.778Z,147.68
2019-03-17T16:07:28.208Z,144.70
2019-03-17T16:09:55.526Z,145.60
2019-03-17T16:12:22.929Z,148.28
2019-03-17T16:14:50.278Z,147.62
2019-03-17T16:17:17.472Z,148.43
2019-03-17T16:19:44.552Z,146.55
2019-03-17T16:22:12.096Z,145.20
2019-03-17T16:24:39.205Z,146.28
2019-03-17T16:27:06.372Z,147.02
2019-03-17T16:29:33.520Z,147.13
2019-03-17T16:32:00.658Z,146.60
2019-03-17T16:34:28.003Z,146.35
2019-03-17T16:36:55.308Z,144.00
2019-03-17T16:39:22.439Z,145.00
2019-03-17T16:41:52.761Z,144.62
2019-03-17T16:44:19.911Z,146.57
2019-03-17T16:46:47.116Z,144.93
2019-03-17T16:49:14.513Z,146.77
2019-03-17T16:51:41.645Z,147.75
2019-03-17T16:54:08.951Z,145.35
2019-03-17T16:56:36.018Z,145.05
2019-03-17T16:59:03.134Z,144.97
2019-03-17T17:01:30.507Z,145.87
2019-03-17T17:03:57.571Z,144.50
2019-03-17T17:06:26.489Z,145.32
2019-03-17T17:08:54.247Z,144.20
2019-03-17T17:11:21.346Z,142.90
2019-03-17T17:13:49.814Z,142.85
2019-03-17T17:16:17.375Z,142.60
2019-03-17T17:18:44.452Z,144.15
2019-03-17T17:21:11.537Z,142.72
2019-03-17T17:23:38.612Z,143.17
2019-03-17T17:26:05.933Z,142.93
2019-03-17T17:28:33.115Z,143.70
2019-03-17T17:31:00.563Z,142.95
2019-03-17T17:33:30.665Z,145.53
2019-03-17T17:35:59.049Z,144.25
2019-03-17T17:38:26.838Z,143.87
2019-03-17T17:40:54.208Z,144.05
2019-03-17T17:43:21.498Z,143.60
2019-03-17T17:45:53.059Z,144.32
2019-03-17T17:48:20.502Z,142.98
2019-03-17T17:50:47.852Z,144.65
2019-03-17T17:53:16.781Z,145.50
2019-03-17T17:55:44.813Z,143.22
2019-03-17T17:58:12.159Z,144.00
2019-03-17T18:00:41.216Z,142.85
2019-03-17T18:03:11.056Z,143.90
2019-03-17T18:05:38.227Z,144.97
2019-03-17T18:08:05.444Z,145.45
2019-03-17T18:10:34.423Z,145.50
2019-03-17T18:13:03.134Z,145.43
2019-03-17T18:15:30.250Z,145.90
2019-03-17T18:17:57.324Z,144.20
2019-03-17T18:20:24.894Z,143.72
2019-03-17T18:22:52.243Z,144.87
2019-03-17T18:25:19.568Z,144.10
2019-03-17T18:27:46.964Z,144.85
2019-03-17T18:30:15.174Z,144.10
2019-03-17T18:32:42.262Z,145.07
2019-03-17T18:35:11.551Z,142.98
2019-03-17T18:37:38.719Z,143.52
2019-03-17T18:40:06.847Z,144.30
2019-03-17T18:42:34.154Z,144.15
2019-03-17T18:45:01.312Z,143.00
2019-03-17T18:47:30.630Z,143.10
2019-03-17T18:49:58.154Z,145.02
2019-03-17T18:52:25.519Z,143.22
2019-03-17T18:54:52.587Z,141.43
2019-03-17T18:57:19.672Z,146.32
2019-03-17T18:59:46.858Z,141.95
2019-03-17T19:02:14.054Z,144.35
2019-03-17T19:04:42.423Z,142.18
2019-03-17T19:07:09.510Z,142.30
2019-03-17T19:09:36.627Z,142.43
2019-03-17T19:12:04.076Z,145.00
2019-03-17T19:14:31.183Z,141.55
2019-03-17T19:16:58.264Z,142.65
2019-03-17T19:19:25.355Z,144.22
2019-03-17T19:21:52.881Z,142.10
2019-03-17T19:24:20.078Z,143.22
2019-03-17T19:26:47.188Z,142.57
2019-03-17T19:29:14.628Z,143.43
2019-03-17T19:31:41.913Z,141.95
2019-03-17T19:34:08.963Z,143.68
2019-03-17T19:36:37.131Z,142.98
2019-03-17T19:39:06.063Z,141.90
2019-03-17T19:41:33.196Z,141.57
2019-03-17T19:44:00.318Z,140.92
2019-03-17T19:46:27.386Z,142.05
2019-03-17T19:48:54.471Z,141.68
2019-03-17T19:51:21.558Z,142.50
2019-03-17T19:53:48.608Z,142.55
2019-03-17T19:56:16.260Z,140.95
2019-03-17T19:58:43.354Z,140.92
2019-03-17T20:01:11.569Z,143.30
2019-03-17T20:03:38.676Z,141.35
2019-03-17T20:06:05.934Z,141.40
2019-03-17T20:08:33.731Z,142.93
2019-03-17T20:11:01.474Z,142.37
2019-03-17T20:13:28.714Z,142.68
2019-03-17T20:15:55.837Z,143.50
2019-03-17T20:18:24.004Z,142.95
2019-03-17T20:20:51.085Z,142.87
2019-03-17T20:23:21.364Z,143.30
2019-03-17T20:25:47.978Z,142.85
2019-03-17T20:28:16.461Z,145.05
2019-03-17T20:30:43.758Z,142.90
2019-03-17T20:33:10.894Z,143.02
2019-03-17T20:35:39.416Z,143.02
2019-03-17T20:38:07.557Z,142.77
2019-03-17T20:40:34.697Z,142.53
2019-03-17T20:43:24.119Z,144.43
2019-03-17T20:45:47.613Z,139.03
2019-03-17T20:48:16.587Z,140.55
2019-03-17T20:50:43.919Z,142.60
2019-03-17T20:53:11.034Z,141.35
2019-03-17T20:55:39.969Z,141.30
2019-03-17T20:58:08.136Z,141.45
2019-03-17T21:00:35.881Z,140.28
2019-03-17T21:03:03.508Z,138.97
2019-03-17T21:05:32.616Z,139.05
2019-03-17T21:08:00.081Z,137.25
2019-03-17T21:10:27.149Z,137.47
2019-03-17T21:12:56.027Z,137.30
2019-03-17T21:15:23.178Z,137.62
2019-03-17T21:17:50.584Z,140.55
2019-03-17T21:20:17.727Z,136.40
2019-03-17T21:22:44.816Z,137.03
2019-03-17T21:25:13.263Z,139.77
2019-03-17T21:27:40.340Z,137.87
2019-03-17T21:30:12.431Z,137.90
2019-03-17T21:32:40.164Z,136.15
2019-03-17T21:35:07.263Z,136.97
2019-03-17T21:37:34.335Z,135.80
2019-03-17T21:40:03.007Z,137.67
2019-03-17T21:42:30.374Z,137.73
2019-03-17T21:44:57.461Z,135.50
2019-03-17T21:47:24.485Z,136.80
2019-03-17T21:49:51.946Z,136.23
2019-03-17T21:52:19.107Z,135.40
2019-03-17T21:54:48.464Z,137.57
2019-03-17T21:57:15.867Z,138.77
2019-03-17T21:59:44.070Z,137.17
2019-03-17T22:02:13.076Z,137.53
2019-03-17T22:04:40.503Z,141.60
2019-03-17T22:07:07.785Z,138.05
2019-03-17T22:09:35.053Z,137.43
2019-03-17T22:12:02.650Z,139.03
2019-03-17T22:14:29.859Z,139.12
2019-03-17T22:16:56.921Z,138.30
2019-03-17T22:19:24.063Z,141.47
2019-03-17T22:22:09.211Z,141.73
2019-03-17T22:25:03.602Z,140.52
2019-03-17T22:27:32.201Z,138.60
2019-03-17T22:29:59.285Z,139.12
2019-03-17T22:32:26.647Z,140.12
2019-03-17T22:34:53.780Z,141.88
2019-03-17T22:37:20.863Z,138.52
2019-03-17T22:39:48.300Z,138.32
2019-03-17T22:42:15.395Z,140.68
2019-03-17T22:44:42.448Z,138.43
2019-03-17T22:47:09.518Z,137.82
2019-03-17T22:49:36.618Z,138.72
2019-03-17T22:52:03.655Z,138.97
2019-03-17T22:54:31.086Z,137.62
2019-03-17T22:56:58.218Z,138.52
2019-03-17T22:59:26.382Z,139.37
2019-03-17T23:01:53.576Z,142.60
2019-03-17T23:04:22.237Z,138.62
2019-03-17T23:06:49.541Z,136.97
2019-03-17T23:09:16.608Z,137.57
2019-03-17T23:11:45.192Z,136.90
2019-03-17T23:14:12.292Z,136.52
2019-03-17T23:16:39.394Z,139.60
2019-03-17T23:19:06.436Z,137.60
2019-03-17T23:21:33.975Z,138.68
2019-03-17T23:24:01.248Z,137.20
2019-03-17T23:26:28.441Z,138.22
2019-03-17T23:28:55.703Z,137.55
2019-03-17T23:31:22.746Z,137.60
2019-03-17T23:33:49.831Z,138.05
2019-03-17T23:36:16.900Z,138.95
2019-03-17T23:38:57.583Z,138.32
2019-03-17T23:41:36.606Z,138.88
2019-03-17T23:44:04.359Z,137.52
2019-03-17T23:46:31.385Z,137.57
2019-03-17T23:48:58.469Z,138.72
2019-03-17T23:51:27.308Z,138.72
2019-03-17T23:53:54.382Z,137.92
2019-03-17T23:56:21.384Z,138.95
2019-03-17T23:58:49.796Z,138.22
